Time;durP1;ratioP1;P1;durP2;ratioP2;P2;SDS_P1;SDS_P2;PMS_P1;PMS_P2;Temp;Humidity;BMP_temperature;BMP_pressure;BME280_temperature;BME280_humidity;BME280_pressure;Samples;Min_cycle;Max_cycle;Signal;HPM_P1;HPM_P2
2024/03/07 00:01:28;;;;;;;69.20;36.25;;;10.10;99.90;;;;;;5054130;28;20243;-77
2024/03/07 00:03:58;;;;;;;69.07;37.00;;;10.20;99.90;;;;;;5054609;28;20243;-76
2024/03/07 00:06:25;;;;;;;66.40;37.47;;;10.20;99.90;;;;;;5051933;28;20305;-77
2024/03/07 00:08:54;;;;;;;80.20;36.10;;;10.20;99.90;;;;;;5054233;28;20236;-77
2024/03/07 00:11:21;;;;;;;72.80;37.65;;;10.20;99.90;;;;;;5054282;28;20221;-76
2024/03/07 00:13:49;;;;;;;66.40;32.88;;;10.20;99.90;;;;;;5035702;28;20566;-76
2024/03/07 00:16:18;;;;;;;65.43;36.33;;;10.20;99.90;;;;;;5032744;28;20721;-76
2024/03/07 00:18:45;;;;;;;70.30;36.20;;;10.20;99.90;;;;;;5026130;28;20245;-77
2024/03/07 00:21:12;;;;;;;79.80;36.25;;;10.20;99.90;;;;;;5040772;28;20744;-76
2024/03/07 00:23:39;;;;;;;67.80;35.88;;;10.20;99.90;;;;;;5049968;28;20224;-76
2024/03/07 00:26:07;;;;;;;72.80;35.50;;;10.20;99.90;;;;;;5054155;28;20224;-76
2024/03/07 00:28:38;;;;;;;79.20;38.78;;;10.20;99.90;;;;;;5050807;28;20690;-76
2024/03/07 00:31:07;;;;;;;71.47;36.90;;;10.20;99.90;;;;;;5054259;28;20217;-76
2024/03/07 00:33:38;;;;;;;75.05;36.42;;;10.20;99.90;;;;;;5052063;28;20424;-76
2024/03/07 00:36:06;;;;;;;76.03;36.55;;;10.20;99.90;;;;;;5052304;28;20224;-76
2024/03/07 00:38:41;;;;;;;76.78;36.65;;;10.20;99.90;;;;;;5055524;28;20256;-76
2024/03/07 00:41:09;;;;;;;67.63;35.28;;;10.10;99.90;;;;;;5061000;28;20562;-76
2024/03/07 00:43:37;;;;;;;68.32;34.40;;;10.10;99.90;;;;;;5053654;28;20228;-76
2024/03/07 00:46:06;;;;;;;80.28;35.63;;;10.10;99.90;;;;;;5053663;28;20228;-76
2024/03/07 00:48:35;;;;;;;64.85;36.70;;;10.20;99.90;;;;;;5053373;28;20312;-76
2024/03/07 00:51:02;;;;;;;64.85;35.17;;;10.20;99.90;;;;;;5053980;28;20670;-76
2024/03/07 00:53:30;;;;;;;69.07;36.92;;;10.20;99.90;;;;;;5051924;28;20228;-78
2024/03/07 00:55:57;;;;;;;65.60;31.85;;;10.20;99.90;;;;;;5055214;28;20229;-76
2024/03/07 00:58:25;;;;;;;69.45;36.63;;;10.20;99.90;;;;;;5051534;28;20314;-76
2024/03/07 01:00:52;;;;;;;71.15;34.80;;;10.20;99.90;;;;;;5032169;28;20221;-76
2024/03/07 01:03:19;;;;;;;73.13;35.75;;;10.20;99.90;;;;;;5033181;28;20229;-75
2024/03/07 01:05:48;;;;;;;62.03;33.25;;;10.20;99.90;;;;;;5037004;28;20221;-77
2024/03/07 01:08:15;;;;;;;70.43;35.83;;;10.20;99.90;;;;;;5053371;28;20225;-77
2024/03/07 01:10:42;;;;;;;62.78;32.72;;;10.10;99.90;;;;;;5053225;28;20228;-77
2024/03/07 01:13:15;;;;;;;63.67;35.28;;;10.20;99.90;;;;;;5053622;28;20678;-77
2024/03/07 01:15:42;;;;;;;66.97;32.22;;;10.20;99.90;;;;;;5050223;28;20279;-77
2024/03/07 01:18:09;;;;;;;67.82;34.05;;;10.10;99.90;;;;;;5053563;28;20312;-77
2024/03/07 01:20:36;;;;;;;74.95;33.67;;;10.10;99.90;;;;;;5053266;28;20243;-77
2024/03/07 01:23:05;;;;;;;60.05;34.45;;;10.10;99.90;;;;;;5044161;28;20232;-77
2024/03/07 01:25:33;;;;;;;69.43;35.08;;;10.10;99.90;;;;;;5032055;28;20217;-77
2024/03/07 01:28:00;;;;;;;67.45;34.15;;;10.10;99.90;;;;;;5037866;28;20224;-77
2024/03/07 01:30:28;;;;;;;71.55;36.17;;;10.10;99.90;;;;;;5052018;28;20228;-77
2024/03/07 01:32:55;;;;;;;68.45;35.50;;;10.10;99.90;;;;;;5052201;28;20255;-77
2024/03/07 01:35:22;;;;;;;68.13;35.42;;;10.10;99.90;;;;;;5051263;28;20221;-77
2024/03/07 01:37:49;;;;;;;66.35;37.05;;;10.00;99.90;;;;;;5052381;28;20429;-77
2024/03/07 01:40:17;;;;;;;62.67;33.05;;;10.00;99.90;;;;;;5070085;28;20224;-77
2024/03/07 01:42:47;;;;;;;66.25;35.67;;;9.90;99.90;;;;;;5055835;28;20227;-77
2024/03/07 01:45:15;;;;;;;60.22;34.05;;;9.80;99.90;;;;;;5052812;28;20228;-77
2024/03/07 01:47:42;;;;;;;65.90;34.67;;;9.80;99.90;;;;;;5052400;28;20232;-77
2024/03/07 01:50:09;;;;;;;64.55;33.75;;;9.80;99.90;;;;;;5052564;28;20240;-77
2024/03/07 01:52:39;;;;;;;63.03;33.40;;;9.70;99.90;;;;;;5052198;28;20246;-76
2024/03/07 01:55:07;;;;;;;63.95;34.70;;;9.70;99.90;;;;;;5052930;28;20225;-76
2024/03/07 01:57:35;;;;;;;65.63;35.45;;;9.70;99.90;;;;;;5052937;28;20538;-76
2024/03/07 02:00:06;;;;;;;50.05;31.50;;;9.70;99.90;;;;;;5051042;28;20236;-77
2024/03/07 02:02:33;;;;;;;53.88;31.33;;;9.70;99.90;;;;;;5051591;28;20308;-77
2024/03/07 02:05:03;;;;;;;61.05;33.05;;;9.70;99.90;;;;;;5052072;28;20224;-76
2024/03/07 02:07:30;;;;;;;63.25;34.28;;;9.70;99.90;;;;;;5053263;28;20227;-76
2024/03/07 02:10:01;;;;;;;66.28;34.55;;;9.70;99.90;;;;;;5050050;28;20232;-77
2024/03/07 02:12:29;;;;;;;61.42;34.22;;;9.60;99.90;;;;;;5049731;28;20560;-77
2024/03/07 02:14:58;;;;;;;53.83;31.15;;;9.60;99.90;;;;;;5049834;28;20216;-77
2024/03/07 02:17:28;;;;;;;55.50;32.05;;;9.60;99.90;;;;;;5043635;28;20267;-77
2024/03/07 02:19:55;;;;;;;57.40;33.70;;;9.60;99.90;;;;;;5030099;28;20217;-77
2024/03/07 02:22:25;;;;;;;67.97;35.63;;;9.60;99.90;;;;;;5038491;28;20213;-76
2024/03/07 02:24:54;;;;;;;51.17;33.13;;;9.50;99.90;;;;;;5030032;28;20248;-79
2024/03/07 02:27:21;;;;;;;57.75;34.20;;;9.50;99.90;;;;;;5030499;28;20232;-77
2024/03/07 02:29:49;;;;;;;55.90;35.45;;;9.50;99.90;;;;;;5031256;28;20646;-76
2024/03/07 02:32:15;;;;;;;68.07;35.60;;;9.50;99.90;;;;;;5032575;28;20227;-76
2024/03/07 02:34:43;;;;;;;63.65;33.30;;;9.50;99.90;;;;;;5032199;28;20221;-79
2024/03/07 02:37:10;;;;;;;69.78;36.97;;;9.50;99.90;;;;;;5032799;28;20228;-77
2024/03/07 02:39:38;;;;;;;62.92;35.70;;;9.40;99.90;;;;;;5032728;28;20244;-76
2024/03/07 02:42:06;;;;;;;55.15;32.67;;;9.40;99.90;;;;;;5032403;28;20554;-79
2024/03/07 02:44:34;;;;;;;65.43;34.97;;;9.40;99.90;;;;;;5032630;28;20313;-79
2024/03/07 02:47:03;;;;;;;68.32;34.72;;;9.40;99.90;;;;;;5032169;28;20225;-79
2024/03/07 02:49:30;;;;;;;68.45;35.28;;;9.50;99.90;;;;;;5032733;28;20710;-79
2024/03/07 02:52:01;;;;;;;62.78;35.70;;;9.40;99.90;;;;;;5030959;28;20290;-77
2024/03/07 02:54:28;;;;;;;56.58;33.33;;;9.50;99.90;;;;;;5031361;28;20541;-79
2024/03/07 02:56:58;;;;;;;60.67;35.90;;;9.50;99.90;;;;;;5032191;28;20225;-76
2024/03/07 02:59:25;;;;;;;73.57;36.88;;;9.50;99.90;;;;;;5032356;28;20743;-76
2024/03/07 03:01:52;;;;;;;77.85;39.78;;;9.40;99.90;;;;;;5031908;28;20328;-76
2024/03/07 03:04:19;;;;;;;67.20;36.95;;;9.40;99.90;;;;;;5035898;28;20312;-76
2024/03/07 03:06:46;;;;;;;65.95;35.70;;;9.40;99.90;;;;;;5035806;28;20300;-77
2024/03/07 03:09:17;;;;;;;64.90;36.78;;;9.30;99.90;;;;;;5036513;28;20235;-79
2024/03/07 03:11:44;;;;;;;66.65;38.75;;;9.40;99.90;;;;;;5036257;28;20570;-77
2024/03/07 03:14:14;;;;;;;70.05;38.75;;;9.30;99.90;;;;;;5035918;28;20316;-77
2024/03/07 03:16:43;;;;;;;62.25;38.10;;;9.30;99.90;;;;;;5036730;28;20679;-77
2024/03/07 03:19:12;;;;;;;77.90;40.40;;;9.30;99.90;;;;;;5037728;28;20240;-79
2024/03/07 03:21:40;;;;;;;63.72;35.58;;;9.30;99.90;;;;;;5037626;28;20303;-79
2024/03/07 03:24:11;;;;;;;66.13;36.60;;;9.30;99.90;;;;;;5035350;28;20229;-79
2024/03/07 03:26:40;;;;;;;72.32;37.88;;;9.30;99.90;;;;;;5035617;28;20275;-79
2024/03/07 03:29:09;;;;;;;55.85;36.63;;;9.20;99.90;;;;;;5035535;28;20229;-77
2024/03/07 03:31:37;;;;;;;69.32;40.08;;;9.20;99.90;;;;;;5035964;28;20236;-76
2024/03/07 03:34:04;;;;;;;68.03;39.70;;;9.20;99.90;;;;;;5035331;28;20252;-79
2024/03/07 03:36:31;;;;;;;77.22;38.83;;;9.20;99.90;;;;;;5035778;28;20218;-76
2024/03/07 03:38:58;;;;;;;70.80;41.63;;;9.20;99.90;;;;;;5035310;28;20217;-79
2024/03/07 03:41:25;;;;;;;70.45;39.38;;;9.20;99.90;;;;;;5035947;28;20729;-79
2024/03/07 03:43:53;;;;;;;63.08;39.65;;;9.20;99.90;;;;;;5034554;28;20263;-76
2024/03/07 03:46:20;;;;;;;74.25;38.60;;;9.20;99.90;;;;;;5035419;28;20312;-77
2024/03/07 03:48:48;;;;;;;66.53;38.53;;;9.20;99.90;;;;;;5035561;28;20225;-79
2024/03/07 03:51:15;;;;;;;70.05;40.45;;;9.20;99.90;;;;;;5035083;28;20221;-79
2024/03/07 03:53:43;;;;;;;71.40;36.80;;;9.10;99.90;;;;;;5035276;28;20529;-76
2024/03/07 03:56:11;;;;;;;63.28;36.38;;;9.10;99.90;;;;;;5035120;28;20287;-79
2024/03/07 03:58:43;;;;;;;65.70;36.70;;;9.10;99.90;;;;;;5035377;28;20224;-77
2024/03/07 04:01:14;;;;;;;63.60;32.95;;;9.10;99.90;;;;;;5035021;28;20236;-76
2024/03/07 04:03:41;;;;;;;59.60;36.70;;;9.10;99.90;;;;;;5035475;28;20295;-79
2024/03/07 04:06:09;;;;;;;68.78;38.25;;;9.10;99.90;;;;;;5035094;28;20240;-79
2024/03/07 04:08:37;;;;;;;61.70;34.22;;;9.10;99.90;;;;;;5035104;28;20331;-79
2024/03/07 04:11:09;;;;;;;59.72;36.95;;;9.10;99.90;;;;;;5034371;28;20279;-79
2024/03/07 04:13:36;;;;;;;70.78;37.15;;;9.00;99.90;;;;;;5034790;28;20237;-79
2024/03/07 04:16:04;;;;;;;62.35;37.00;;;9.00;99.90;;;;;;5034149;28;20225;-79
2024/03/07 04:18:32;;;;;;;65.63;36.72;;;9.00;99.90;;;;;;5035467;28;20231;-76
2024/03/07 04:20:59;;;;;;;63.20;36.10;;;9.00;99.90;;;;;;5034503;28;20728;-76
2024/03/07 04:23:27;;;;;;;58.08;35.00;;;8.90;99.90;;;;;;5034788;28;20231;-76
2024/03/07 04:25:56;;;;;;;54.72;34.95;;;8.90;99.90;;;;;;5034653;28;20222;-76
2024/03/07 04:28:23;;;;;;;59.22;34.65;;;8.90;99.90;;;;;;5034989;28;20217;-76
2024/03/07 04:30:50;;;;;;;48.70;32.78;;;8.80;99.90;;;;;;5034851;28;20225;-79
2024/03/07 04:33:17;;;;;;;55.35;34.47;;;8.80;99.90;;;;;;5034440;28;20228;-79
2024/03/07 04:35:44;;;;;;;53.97;32.35;;;8.70;99.90;;;;;;5034685;28;20683;-79
2024/03/07 04:38:14;;;;;;;50.08;32.00;;;8.70;99.90;;;;;;5034364;28;20236;-76
2024/03/07 04:40:43;;;;;;;47.70;30.98;;;8.70;99.90;;;;;;5034597;28;20244;-79
2024/03/07 04:43:11;;;;;;;45.63;31.77;;;8.70;99.90;;;;;;5033997;28;20569;-76
2024/03/07 04:45:38;;;;;;;52.72;32.17;;;8.60;99.90;;;;;;5034313;28;20229;-79
2024/03/07 04:48:06;;;;;;;45.65;31.20;;;8.60;99.90;;;;;;5033948;28;20221;-79
2024/03/07 04:50:35;;;;;;;44.17;30.85;;;8.50;99.90;;;;;;5034294;28;20283;-76
2024/03/07 04:53:02;;;;;;;47.95;31.05;;;8.50;99.90;;;;;;5033815;28;20246;-79
2024/03/07 04:55:29;;;;;;;46.30;32.08;;;8.40;99.90;;;;;;5034354;28;20236;-79
2024/03/07 04:57:58;;;;;;;49.10;30.27;;;8.40;99.90;;;;;;5033533;28;20236;-79
2024/03/07 05:00:25;;;;;;;45.10;30.60;;;8.30;99.90;;;;;;5034272;28;20264;-79
2024/03/07 05:02:53;;;;;;;41.67;28.77;;;8.20;99.90;;;;;;5034124;28;20640;-79
2024/03/07 05:05:25;;;;;;;48.58;32.33;;;8.20;99.90;;;;;;5033540;28;20264;-79
2024/03/07 05:07:56;;;;;;;47.17;30.17;;;8.20;99.90;;;;;;5033927;28;20573;-78
2024/03/07 05:10:23;;;;;;;45.50;30.30;;;8.20;99.90;;;;;;5033744;28;20225;-79
2024/03/07 05:12:50;;;;;;;42.10;29.42;;;8.20;99.90;;;;;;5033925;28;20237;-79
2024/03/07 05:15:19;;;;;;;42.47;28.65;;;8.20;99.90;;;;;;5033455;28;20595;-79
2024/03/07 05:17:46;;;;;;;47.78;30.05;;;8.10;99.90;;;;;;5033722;28;20225;-76
2024/03/07 05:20:13;;;;;;;41.13;28.80;;;8.20;99.90;;;;;;5033337;28;20267;-76
2024/03/07 05:22:44;;;;;;;42.85;29.98;;;8.20;99.90;;;;;;5033666;28;20225;-76
2024/03/07 05:25:11;;;;;;;47.05;29.70;;;8.20;99.90;;;;;;5033244;28;20229;-76
2024/03/07 05:27:39;;;;;;;43.97;30.52;;;8.10;99.90;;;;;;5033581;28;20688;-76
2024/03/07 05:30:09;;;;;;;40.70;28.50;;;8.10;99.90;;;;;;5033129;28;20803;-76
2024/03/07 05:32:39;;;;;;;42.22;29.60;;;8.10;99.90;;;;;;5033496;28;20221;-76
2024/03/07 05:35:08;;;;;;;40.88;28.83;;;8.10;99.90;;;;;;5033052;28;20625;-76
2024/03/07 05:37:41;;;;;;;41.65;29.90;;;8.10;99.90;;;;;;5033470;28;20221;-76
2024/03/07 05:40:09;;;;;;;42.17;30.73;;;8.10;99.90;;;;;;5033049;28;20229;-76
2024/03/07 05:42:36;;;;;;;51.22;29.73;;;8.00;99.90;;;;;;5033419;28;20229;-76
2024/03/07 05:45:07;;;;;;;43.70;28.40;;;8.00;99.90;;;;;;5032918;28;20576;-76
2024/03/07 05:47:34;;;;;;;42.65;29.77;;;8.00;99.90;;;;;;5033307;28;20232;-76
2024/03/07 05:50:07;;;;;;;40.08;29.58;;;8.00;99.90;;;;;;5032891;28;20252;-76
2024/03/07 05:52:35;;;;;;;44.65;28.65;;;8.00;99.90;;;;;;5033297;28;20229;-76
2024/03/07 05:55:00;;;;;;;44.38;30.23;;;7.90;99.90;;;;;;5032697;28;20774;-77
2024/03/07 05:57:27;;;;;;;47.03;30.53;;;7.90;99.90;;;;;;5033461;28;20296;-76
2024/03/07 05:59:56;;;;;;;44.88;29.95;;;7.90;99.90;;;;;;5033189;28;20468;-76
2024/03/07 06:02:23;;;;;;;45.22;29.98;;;7.90;99.90;;;;;;5032740;28;20640;-76
2024/03/07 06:04:50;;;;;;;37.30;27.60;;;7.80;99.90;;;;;;5032335;28;20233;-78
2024/03/07 06:07:22;;;;;;;47.75;28.67;;;7.80;99.90;;;;;;5032417;28;20243;-78
2024/03/07 06:09:50;;;;;;;40.85;27.60;;;7.80;99.90;;;;;;5033193;28;20232;-79
2024/03/07 06:12:17;;;;;;;41.08;29.10;;;7.80;99.90;;;;;;5032662;28;20228;-79
2024/03/07 06:14:44;;;;;;;42.33;28.60;;;7.80;99.90;;;;;;5038860;28;20225;-79
2024/03/07 06:17:12;;;;;;;41.95;28.92;;;7.80;99.90;;;;;;5032466;28;20229;-79
2024/03/07 06:19:38;;;;;;;43.63;28.50;;;7.70;99.90;;;;;;5033038;28;20224;-79
2024/03/07 06:22:08;;;;;;;38.42;27.42;;;7.80;99.90;;;;;;5032538;28;20225;-78
2024/03/07 06:24:40;;;;;;;35.42;25.48;;;7.70;99.90;;;;;;5033094;28;20625;-78
2024/03/07 06:27:16;;;;;;;39.55;28.30;;;7.70;99.90;;;;;;5032285;28;20232;-78
2024/03/07 06:29:45;;;;;;;34.25;26.00;;;7.70;99.90;;;;;;5032297;28;20294;-79
2024/03/07 06:32:12;;;;;;;40.08;27.80;;;7.70;99.90;;;;;;5032456;28;20229;-78
2024/03/07 06:34:39;;;;;;;32.10;25.05;;;7.60;99.90;;;;;;5032773;28;20228;-79
2024/03/07 06:37:06;;;;;;;37.70;26.23;;;7.70;99.90;;;;;;5033646;28;20695;-79
2024/03/07 06:39:33;;;;;;;34.78;25.90;;;7.70;99.90;;;;;;5056321;28;20220;-78
2024/03/07 06:42:14;;;;;;;30.30;23.83;;;7.70;99.90;;;;;;5056770;28;20671;-78
2024/03/07 06:44:41;;;;;;;37.03;25.85;;;7.70;99.90;;;;;;5040191;28;20314;-79
2024/03/07 06:47:08;;;;;;;34.58;25.58;;;7.60;99.90;;;;;;5056716;28;20243;-79
2024/03/07 06:49:35;;;;;;;37.65;24.60;;;7.60;99.90;;;;;;5056159;28;20227;-79
2024/03/07 06:52:02;;;;;;;36.67;24.75;;;7.60;99.90;;;;;;5056481;28;20267;-79
2024/03/07 06:54:29;;;;;;;31.70;22.98;;;7.60;99.90;;;;;;5055973;28;20221;-78
2024/03/07 06:56:56;;;;;;;33.67;24.33;;;7.50;99.90;;;;;;5056440;28;20247;-79
2024/03/07 06:59:25;;;;;;;37.30;23.98;;;7.50;99.90;;;;;;5056117;28;20220;-79
2024/03/07 07:01:54;;;;;;;28.48;23.83;;;7.40;99.90;;;;;;5055946;28;20223;-79
2024/03/07 07:04:21;;;;;;;31.27;23.00;;;7.40;99.90;;;;;;5055622;28;20228;-79
2024/03/07 07:06:47;;;;;;;33.38;22.30;;;7.40;99.90;;;;;;5056415;28;20312;-79
2024/03/07 07:09:18;;;;;;;32.47;22.45;;;7.40;99.90;;;;;;5055990;28;20229;-79
2024/03/07 07:11:47;;;;;;;31.67;22.45;;;7.40;99.90;;;;;;5035692;28;20213;-78
2024/03/07 07:14:14;;;;;;;28.15;22.52;;;7.40;99.90;;;;;;5036125;28;20663;-76
2024/03/07 07:16:45;;;;;;;35.17;21.60;;;7.40;99.90;;;;;;5035726;28;20228;-76
2024/03/07 07:19:13;;;;;;;29.33;20.38;;;7.40;99.90;;;;;;5035907;28;20225;-76
2024/03/07 07:21:41;;;;;;;27.23;20.83;;;7.40;99.90;;;;;;5035189;28;20225;-78
2024/03/07 07:24:08;;;;;;;32.97;22.30;;;7.40;99.90;;;;;;5035963;28;20428;-78
2024/03/07 07:26:35;;;;;;;30.02;19.75;;;7.50;99.90;;;;;;5035525;28;20225;-79
2024/03/07 07:29:04;;;;;;;26.38;20.00;;;7.50;99.90;;;;;;5035887;28;20226;-79
2024/03/07 07:31:32;;;;;;;24.27;20.08;;;7.50;99.90;;;;;;5034488;28;20221;-78
2024/03/07 07:34:04;;;;;;;27.35;21.08;;;7.50;99.90;;;;;;5035547;28;20229;-79
2024/03/07 07:36:32;;;;;;;34.80;21.50;;;7.50;99.90;;;;;;5035341;28;20229;-78
2024/03/07 07:38:59;;;;;;;28.85;20.45;;;7.40;99.90;;;;;;5035909;28;20232;-78
2024/03/07 07:41:26;;;;;;;31.17;20.75;;;7.40;99.90;;;;;;5040270;28;20295;-79
2024/03/07 07:43:54;;;;;;;25.48;20.48;;;7.40;99.90;;;;;;5039173;28;20313;-76
2024/03/07 07:46:22;;;;;;;32.20;20.00;;;7.50;99.90;;;;;;5036225;28;20241;-76
2024/03/07 07:48:49;;;;;;;28.73;20.58;;;7.50;99.90;;;;;;5033581;28;20218;-79
2024/03/07 07:51:17;;;;;;;28.13;21.02;;;7.50;99.90;;;;;;5035544;28;20383;-76
2024/03/07 07:53:44;;;;;;;27.10;20.23;;;7.50;99.90;;;;;;5034785;28;20229;-76
2024/03/07 07:56:11;;;;;;;28.10;20.00;;;7.50;99.90;;;;;;5035334;28;20225;-76
2024/03/07 07:58:38;;;;;;;26.52;19.70;;;7.60;99.90;;;;;;5035147;28;20539;-76
2024/03/07 08:01:08;;;;;;;24.77;20.05;;;7.70;99.90;;;;;;5035067;28;20376;-76
2024/03/07 08:03:35;;;;;;;23.95;18.17;;;7.70;99.90;;;;;;5034540;28;20312;-78
2024/03/07 08:06:02;;;;;;;29.08;19.75;;;7.80;99.90;;;;;;5038361;28;20233;-79
2024/03/07 08:08:31;;;;;;;30.40;19.60;;;7.90;99.90;;;;;;5037461;28;20240;-78
2024/03/07 08:10:59;;;;;;;26.35;18.45;;;7.80;99.90;;;;;;5034893;28;20675;-78
2024/03/07 08:13:26;;;;;;;26.15;19.17;;;7.80;99.90;;;;;;5034857;28;20308;-79
2024/03/07 08:15:53;;;;;;;23.75;17.83;;;7.90;99.90;;;;;;5034412;28;20751;-78
2024/03/07 08:18:20;;;;;;;24.98;18.30;;;7.90;99.90;;;;;;5034678;28;20304;-76
2024/03/07 08:20:48;;;;;;;24.35;19.40;;;8.00;99.90;;;;;;5034587;28;20308;-76
2024/03/07 08:23:15;;;;;;;26.35;18.83;;;8.00;99.90;;;;;;5034660;28;20364;-76
2024/03/07 08:25:43;;;;;;;22.83;17.05;;;8.10;99.90;;;;;;5034281;28;20225;-76
2024/03/07 08:28:11;;;;;;;25.65;17.98;;;8.10;99.90;;;;;;5034787;28;20221;-77
2024/03/07 08:30:38;;;;;;;24.55;17.77;;;8.20;99.90;;;;;;5034241;28;20225;-78
2024/03/07 08:33:05;;;;;;;24.58;16.23;;;8.30;99.90;;;;;;5034788;28;20249;-76
2024/03/07 08:35:32;;;;;;;21.23;16.85;;;8.30;99.90;;;;;;5033897;28;20287;-76
2024/03/07 08:38:01;;;;;;;17.77;15.88;;;8.40;99.90;;;;;;5034201;28;20234;-76
2024/03/07 08:40:32;;;;;;;21.75;16.25;;;8.40;99.90;;;;;;5034381;28;20567;-76
2024/03/07 08:43:02;;;;;;;21.35;17.15;;;8.50;99.90;;;;;;5053925;28;20221;-76
2024/03/07 08:45:33;;;;;;;18.17;16.13;;;8.50;99.90;;;;;;5053452;28;20251;-76
2024/03/07 08:48:00;;;;;;;19.65;16.38;;;8.50;99.90;;;;;;5024764;28;20217;-77
2024/03/07 08:50:28;;;;;;;23.83;16.20;;;8.60;99.90;;;;;;5034387;28;20225;-76
2024/03/07 08:52:55;;;;;;;19.60;15.55;;;8.70;99.90;;;;;;5033760;28;20233;-76
2024/03/07 08:55:24;;;;;;;19.35;14.20;;;8.70;99.90;;;;;;5034180;28;20225;-76
2024/03/07 08:57:51;;;;;;;19.58;14.05;;;8.80;99.90;;;;;;5033794;28;20248;-76
2024/03/07 09:00:24;;;;;;;24.42;17.25;;;8.90;99.90;;;;;;5033838;28;20222;-76
2024/03/07 09:02:53;;;;;;;19.42;15.02;;;8.90;99.90;;;;;;5033400;28;20269;-76
2024/03/07 09:05:21;;;;;;;20.23;14.75;;;8.90;99.90;;;;;;5033703;28;20226;-76
2024/03/07 09:07:49;;;;;;;21.20;15.65;;;8.90;99.90;;;;;;5024758;28;20267;-76
2024/03/07 09:10:20;;;;;;;18.58;15.65;;;8.90;99.90;;;;;;5049319;28;20241;-79
2024/03/07 09:12:49;;;;;;;18.52;13.45;;;9.00;99.90;;;;;;5036199;28;20249;-78
2024/03/07 09:15:18;;;;;;;17.88;14.27;;;9.00;99.90;;;;;;5033698;28;20561;-76
2024/03/07 09:17:50;;;;;;;20.95;14.80;;;9.00;99.90;;;;;;5033165;28;20225;-76
2024/03/07 09:20:20;;;;;;;19.13;13.70;;;9.00;99.90;;;;;;5033725;28;20221;-78
2024/03/07 09:22:48;;;;;;;17.70;12.80;;;9.10;99.90;;;;;;5033192;28;20232;-78
2024/03/07 09:25:19;;;;;;;15.02;13.48;;;9.10;99.90;;;;;;5033619;28;20655;-78
2024/03/07 09:27:47;;;;;;;16.75;14.95;;;9.10;99.90;;;;;;5033463;28;20600;-77
2024/03/07 09:30:18;;;;;;;18.98;13.95;;;9.00;99.90;;;;;;5033631;28;20227;-76
2024/03/07 09:32:45;;;;;;;20.00;12.23;;;9.10;99.90;;;;;;5030957;28;20233;-76
2024/03/07 09:35:13;;;;;;;16.42;12.32;;;9.20;99.90;;;;;;5033513;28;20565;-76
2024/03/07 09:37:42;;;;;;;21.02;14.80;;;9.20;99.90;;;;;;5033417;28;20221;-76
2024/03/07 09:40:12;;;;;;;17.65;13.00;;;9.20;99.90;;;;;;5033426;28;20225;-76
2024/03/07 09:42:45;;;;;;;17.67;14.13;;;9.30;99.90;;;;;;5033438;28;20679;-76
2024/03/07 09:45:16;;;;;;;17.55;13.63;;;9.30;99.90;;;;;;5033101;28;20230;-76
2024/03/07 09:47:46;;;;;;;16.58;12.85;;;9.30;99.90;;;;;;5033486;28;20690;-76
2024/03/07 09:50:18;;;;;;;15.38;13.10;;;9.40;99.90;;;;;;5052671;28;20217;-76
2024/03/07 09:52:49;;;;;;;17.60;14.13;;;9.40;99.90;;;;;;5053163;28;20224;-76
2024/03/07 09:55:17;;;;;;;15.80;12.18;;;9.50;99.80;;;;;;5053063;28;20304;-76
2024/03/07 09:57:45;;;;;;;16.75;12.73;;;9.50;99.50;;;;;;5053061;28;20610;-76
2024/03/07 10:00:22;;;;;;;16.95;12.82;;;9.50;98.60;;;;;;5052524;28;20224;-76
2024/03/07 10:02:54;;;;;;;17.92;13.30;;;9.50;98.80;;;;;;5052908;28;20236;-76
2024/03/07 10:05:29;;;;;;;18.33;13.50;;;9.60;98.10;;;;;;5052597;28;20220;-76
2024/03/07 10:07:56;;;;;;;16.05;14.07;;;9.70;97.90;;;;;;5052848;28;20252;-76
2024/03/07 10:10:24;;;;;;;13.48;11.85;;;9.70;97.40;;;;;;5052198;28;20654;-76
2024/03/07 10:12:53;;;;;;;15.13;13.43;;;9.80;96.70;;;;;;5052212;28;20224;-76
2024/03/07 10:15:21;;;;;;;16.15;12.40;;;9.90;96.90;;;;;;5052496;28;20554;-76
2024/03/07 10:17:48;;;;;;;15.20;12.50;;;10.00;96.10;;;;;;5052898;28;20693;-76
2024/03/07 10:20:20;;;;;;;15.68;12.90;;;9.90;95.90;;;;;;5053187;28;20563;-76
2024/03/07 10:22:49;;;;;;;17.02;12.05;;;10.00;95.10;;;;;;5053332;28;20274;-75
2024/03/07 10:25:27;;;;;;;15.48;11.32;;;10.00;94.80;;;;;;5053295;28;20282;-76
2024/03/07 10:27:54;;;;;;;19.10;11.80;;;9.90;94.70;;;;;;5053620;28;20317;-77
2024/03/07 10:30:21;;;;;;;15.77;14.00;;;9.90;94.30;;;;;;5052331;28;20228;-77
2024/03/07 10:32:51;;;;;;;16.92;11.55;;;10.00;94.40;;;;;;5052484;28;20568;-76
2024/03/07 10:35:22;;;;;;;13.50;11.88;;;9.90;94.30;;;;;;5052375;28;20572;-76
2024/03/07 10:37:51;;;;;;;12.25;9.60;;;9.90;93.10;;;;;;5052753;28;20224;-76
2024/03/07 10:40:18;;;;;;;13.38;11.52;;;9.90;93.10;;;;;;5052093;28;20252;-76
2024/03/07 10:42:51;;;;;;;13.75;10.50;;;9.90;92.80;;;;;;5052847;28;20568;-76
2024/03/07 10:45:21;;;;;;;12.35;11.13;;;9.90;92.60;;;;;;5052059;28;20690;-76
2024/03/07 10:47:54;;;;;;;12.15;10.85;;;9.90;92.30;;;;;;5052772;28;20556;-76
2024/03/07 10:50:31;;;;;;;16.23;11.68;;;9.90;92.20;;;;;;5052021;28;20224;-76
2024/03/07 10:53:08;;;;;;;16.42;10.43;;;9.90;91.90;;;;;;5052867;28;20311;-76
2024/03/07 10:55:39;;;;;;;11.48;10.27;;;9.90;91.80;;;;;;5052537;28;20209;-76
2024/03/07 10:58:14;;;;;;;18.75;11.55;;;9.90;91.60;;;;;;5052530;28;20220;-76
2024/03/07 11:00:45;;;;;;;13.55;10.52;;;9.90;91.80;;;;;;5052318;28;20299;-76
2024/03/07 11:03:13;;;;;;;15.75;11.07;;;9.90;92.20;;;;;;5052584;28;20232;-76
2024/03/07 11:05:43;;;;;;;13.07;11.68;;;10.00;91.50;;;;;;5052045;28;20354;-76
2024/03/07 11:08:12;;;;;;;13.07;11.77;;;10.00;90.60;;;;;;5052084;28;20239;-76
2024/03/07 11:10:43;;;;;;;17.98;11.77;;;10.00;90.80;;;;;;5052099;28;20282;-76
2024/03/07 11:13:12;;;;;;;14.15;12.25;;;10.00;90.70;;;;;;5052634;28;20564;-76
2024/03/07 11:15:41;;;;;;;13.90;10.73;;;10.10;91.30;;;;;;5051845;28;20225;-76
2024/03/07 11:18:09;;;;;;;14.10;11.60;;;10.20;90.90;;;;;;5052497;28;20228;-76
2024/03/07 11:20:38;;;;;;;13.43;11.32;;;10.30;90.60;;;;;;5051894;28;20311;-76
2024/03/07 11:23:28;;;;;;;14.02;11.75;;;10.30;90.60;;;;;;5053330;28;20229;-76
2024/03/07 11:25:56;;;;;;;13.68;11.40;;;10.20;90.10;;;;;;5036417;28;20229;-76
2024/03/07 11:28:31;;;;;;;14.57;11.75;;;10.20;90.10;;;;;;5035480;28;20221;-76
2024/03/07 11:31:09;;;;;;;12.55;10.25;;;10.20;90.00;;;;;;5035859;28;20248;-76
2024/03/07 11:33:40;;;;;;;15.60;12.25;;;10.30;90.30;;;;;;5056358;28;20712;-78
2024/03/07 11:36:09;;;;;;;13.25;11.25;;;10.30;90.00;;;;;;5055054;28;20650;-79
2024/03/07 11:38:37;;;;;;;14.07;10.48;;;10.20;90.00;;;;;;5055707;28;20686;-76
2024/03/07 11:41:05;;;;;;;13.93;10.52;;;10.20;90.30;;;;;;5055287;28;20226;-76
2024/03/07 11:43:33;;;;;;;13.35;11.40;;;10.20;90.60;;;;;;5055556;28;20228;-76
2024/03/07 11:46:01;;;;;;;14.60;12.05;;;10.30;90.70;;;;;;5055053;28;20286;-76
2024/03/07 11:48:30;;;;;;;17.77;13.98;;;10.40;91.10;;;;;;5055323;28;20216;-76
2024/03/07 11:50:57;;;;;;;13.93;10.82;;;10.50;91.30;;;;;;5054920;28;20745;-76
2024/03/07 11:53:25;;;;;;;15.10;12.70;;;10.50;90.30;;;;;;5055267;28;20711;-76
2024/03/07 11:55:54;;;;;;;13.45;11.50;;;10.50;89.60;;;;;;5054929;28;20697;-76
2024/03/07 11:58:22;;;;;;;14.45;11.93;;;10.50;89.90;;;;;;5055104;28;20224;-76
2024/03/07 12:00:51;;;;;;;12.68;10.80;;;10.50;89.60;;;;;;5054780;28;20251;-76
2024/03/07 12:03:21;;;;;;;12.80;11.30;;;10.50;88.60;;;;;;5055148;28;20247;-76
2024/03/07 12:05:52;;;;;;;13.20;11.70;;;10.50;88.80;;;;;;5054663;28;20259;-77
2024/03/07 12:08:22;;;;;;;13.80;11.32;;;10.40;89.00;;;;;;5055041;28;20225;-76
2024/03/07 12:10:53;;;;;;;16.75;12.18;;;10.50;89.10;;;;;;5054654;28;20244;-76
2024/03/07 12:13:24;;;;;;;12.88;11.38;;;10.50;89.50;;;;;;5055006;28;20300;-76
2024/03/07 12:15:52;;;;;;;19.55;11.73;;;10.30;87.30;;;;;;5054443;28;20243;-76
2024/03/07 12:18:20;;;;;;;14.23;12.73;;;10.20;87.80;;;;;;5054998;28;20221;-76
2024/03/07 12:20:51;;;;;;;15.38;12.40;;;10.20;88.40;;;;;;5054610;28;20225;-76
2024/03/07 12:23:19;;;;;;;16.30;13.32;;;10.10;88.60;;;;;;5054878;28;20232;-76
2024/03/07 12:25:47;;;;;;;13.35;12.00;;;10.20;89.30;;;;;;5054682;28;20732;-76
2024/03/07 12:28:17;;;;;;;12.50;11.20;;;10.20;88.90;;;;;;5054625;28;20240;-76
2024/03/07 12:30:52;;;;;;;15.73;12.48;;;10.30;88.80;;;;;;5054755;28;20670;-76
2024/03/07 12:33:21;;;;;;;13.13;11.68;;;10.30;87.80;;;;;;5042680;28;20235;-76
2024/03/07 12:35:50;;;;;;;17.65;11.88;;;10.40;88.20;;;;;;5033777;28;20222;-76
2024/03/07 12:38:17;;;;;;;13.43;12.02;;;10.30;86.80;;;;;;5035160;28;20279;-76
2024/03/07 12:40:46;;;;;;;13.65;11.88;;;10.30;87.30;;;;;;5034590;28;20235;-76